Data for 03/29/2013

Time Sea-Level Adjusted Pressure Absolute Pressure Temperature Relative Humidity Dew Point   
(mb) (inHg) (mb) (inHg) (C) (F) (%) (C) (F)
00:05 1019 30.09 848 25.04 5.3 41.5 50 -4.4 24.1
00:10 1019 30.09 849 25.07 5.4 41.7 50 -4.3 24.2
00:15 1019 30.09 849 25.07 5.3 41.6 51 -4 24.8
00:20 1019 30.09 849 25.07 5.2 41.3 52 -3.9 24.9
00:25 1019 30.09 849 25.07 4.9 40.9 52 -4 24.7
00:30 1019 30.09 849 25.07 4.9 40.9 53 -3.9 24.9
00:35 1019 30.09 849 25.07 5.4 41.6 51 -3.9 25
00:40 1019 30.09 849 25.07 5.3 41.5 52 -3.8 25.2
00:45 1019 30.09 849 25.07 5.5 41.9 51 -3.8 25.2
00:50 1020 30.12 849 25.07 5.7 42.2 52 -3.5 25.7
00:55 1020 30.12 849 25.07 5.6 42.2 51 -3.6 25.5
01:00 1020 30.12 849 25.07 5.6 42 52 -3.6 25.5
01:05 1020 30.12 849 25.07 5.3 41.5 52 -3.7 25.3
01:10 1020 30.12 849 25.07 5.3 41.6 52 -3.6 25.5
01:15 1020 30.12 849 25.07 5.3 41.6 53 -3.4 25.9
01:20 1020 30.12 849 25.07 5.4 41.7 54 -3.3 26.1
01:25 1020 30.12 849 25.07 4.8 40.6 56 -3.3 26.1
01:30 1020 30.12 849 25.07 4.5 40 57 -3.4 26
01:35 1020 30.12 849 25.07 4.3 39.8 58 -3.3 26.1
01:40 1020 30.12 849 25.07 4.6 40.4 56 -3.3 26
01:45 1020 30.12 849 25.07 5.1 41.1 55 -3.1 26.3
01:50 1020 30.12 849 25.07 5.2 41.4 55 -3 26.6
01:55 1020 30.12 849 25.07 5.1 41.2 57 -2.8 26.9
02:00 1020 30.12 849 25.07 4.8 40.7 57 -2.9 26.8
02:05 1020 30.12 849 25.07 4.8 40.6 56 -3.2 26.3
02:10 1020 30.12 849 25.07 4.7 40.4 57 -3.2 26.3
02:15 1020 30.12 849 25.07 4.8 40.6 57 -3 26.6
02:20 1020 30.12 849 25.07 5.1 41.2 55 -3.1 26.4
02:25 1020 30.12 849 25.07 5 41 57 -2.8 27
02:30 1020 30.12 849 25.07 4.5 40.1 58 -3.1 26.4
02:35 1020 30.12 849 25.07 4.4 39.9 57 -3.3 26.1
02:40 1020 30.12 849 25.07 4.4 39.8 57 -3.4 25.8
02:45 1020 30.12 849 25.07 4.2 39.6 58 -3.3 26
02:50 1020 30.12 849 25.07 4 39.3 58 -3.6 25.6
02:55 1020 30.12 849 25.07 4.1 39.5 57 -3.6 25.5
03:00 1020 30.12 849 25.07 4.1 39.3 57 -3.6 25.5
03:05 1020 30.12 849 25.07 4.1 39.4 57 -3.6 25.5
03:10 1020 30.12 849 25.07 4.2 39.6 57 -3.5 25.7
03:15 1020 30.12 849 25.07 4.2 39.5 57 -3.5 25.7
03:20 1020 30.12 849 25.07 4.1 39.4 58 -3.4 25.9
03:25 1020 30.12 849 25.07 4.1 39.4 57 -3.5 25.7
03:30 1020 30.12 849 25.07 4.1 39.4 57 -3.6 25.6
03:35 1020 30.12 849 25.07 4.1 39.4 57 -3.5 25.6
03:40 1020 30.12 849 25.07 4.3 39.7 58 -3.3 26.1
03:45 1020 30.12 849 25.07 4.4 39.9 57 -3.3 26.1
03:50 1020 30.12 849 25.07 4.4 40 57 -3.3 26.1
03:55 1020 30.12 849 25.07 4.4 40 57 -3.3 26.1
04:00 1020 30.12 849 25.07 4.4 39.9 58 -3.1 26.5
04:05 1020 30.12 849 25.07 4.4 39.9 58 -3.1 26.5
04:10 1020 30.12 849 25.07 4.2 39.6 63 -2.2 28.1
04:15 1020 30.12 849 25.07 4 39.2 64 -2.2 28.1
04:20 1020 30.12 849 25.07 3.8 38.8 64 -2.3 27.8
04:25 1020 30.12 849 25.07 3.6 38.6 66 -2.1 28.2
04:30 1020 30.12 849 25.07 3.4 38.1 67 -2.1 28.3
04:35 1020 30.12 849 25.07 3.5 38.3 62 -3.1 26.4
04:40 1020 30.12 849 25.07 4 39.3 65 -2 28.5
04:45 1020 30.12 849 25.07 3.6 38.5 66 -2.1 28.2
04:50 1020 30.12 849 25.07 3.2 37.8 69 -2 28.4
04:55 1020 30.12 849 25.07 2.8 37.1 70 -2.1 28.3
05:00 1020 30.12 849 25.07 2.6 36.6 71 -2.1 28.1
05:05 1020 30.12 849 25.07 2.5 36.5 70 -2.4 27.6
05:10 1020 30.12 849 25.07 2.8 37.1 67 -2.8 27
05:15 1020 30.12 849 25.07 3.2 37.8 67 -2.4 27.7
05:20 1020 30.12 849 25.07 3.3 37.9 67 -2.3 27.9
05:25 1020 30.12 849 25.07 3.2 37.8 66 -2.5 27.5
05:30 1020 30.12 849 25.07 3.4 38.1 66 -2.4 27.7
05:35 1020 30.12 849 25.07 3.3 37.9 66 -2.5 27.5
05:40 1020 30.12 849 25.07 3.3 37.9 65 -2.8 27
05:45 1020 30.12 849 25.07 3.3 37.9 65 -2.7 27.2
05:50 1020 30.12 849 25.07 3.5 38.2 65 -2.6 27.3
05:55 1020 30.12 849 25.07 3.4 38.2 66 -2.4 27.7
06:00 1020 30.12 849 25.07 3.2 37.8 66 -2.6 27.3
06:05 1020 30.12 849 25.07 3.2 37.7 66 -2.5 27.4
06:10 1020 30.12 849 25.07 3 37.5 67 -2.6 27.4
06:15 1020 30.12 849 25.07 3 37.4 66 -2.7 27.2
06:20 1020 30.12 849 25.07 3.1 37.6 66 -2.6 27.2
06:25 1020 30.12 849 25.07 3.3 37.9 66 -2.5 27.6
06:30 1020 30.12 849 25.07 3 37.4 67 -2.5 27.5
06:35 1020 30.12 849 25.07 2.8 37.1 68 -2.5 27.4
06:40 1020 30.12 849 25.07 2.9 37.3 67 -2.6 27.3
06:45 1020 30.12 849 25.07 2.9 37.3 68 -2.5 27.5
06:50 1020 30.12 850 25.1 3 37.4 67 -2.4 27.7
06:55 1020 30.12 850 25.1 3.4 38.1 65 -2.5 27.5
07:00 1020 30.12 850 25.1 3.6 38.4 65 -2.3 27.8
07:05 1021 30.15 850 25.1 3.8 38.8 64 -2.5 27.5
07:10 1021 30.15 850 25.1 4 39.2 62 -2.6 27.3
07:15 1021 30.15 850 25.1 4.3 39.7 62 -2.3 27.8
07:20 1021 30.15 850 25.1 4.6 40.3 61 -2.3 27.8
07:25 1021 30.15 850 25.1 4.7 40.4 61 -2.2 28
07:30 1021 30.15 850 25.1 4.7 40.4 62 -1.9 28.6
07:35 1021 30.15 850 25.1 4.6 40.3 63 -1.8 28.7
07:40 1021 30.15 850 25.1 4.8 40.6 64 -1.5 29.3
07:45 1021 30.15 850 25.1 5.1 41.3 64 -1.1 30.1
07:50 1021 30.15 850 25.1 5.4 41.8 65 -0.6 30.9
07:55 1021 30.15 850 25.1 5.4 41.8 67 -0.1 31.8
08:00 1021 30.15 850 25.1 5.6 42 68 0.2 32.4
08:05 1021 30.15 850 25.1 5.6 42.1 67 -0 31.9
08:10 1021 30.15 850 25.1 5.5 42 69 0.3 32.6
08:15 1021 30.15 850 25.1 5.5 41.9 69 0.3 32.5
08:20 1021 30.15 850 25.1 5.6 42.1 70 0.5 32.9
08:25 1021 30.15 850 25.1 5.6 42 70 0.6 33
08:30 1021 30.15 850 25.1 5.8 42.4 68 0.3 32.6
08:35 1021 30.15 850 25.1 5.9 42.6 69 0.6 33.1
08:40 1020 30.12 850 25.1 6.1 43 67 0.5 33
08:45 1021 30.15 850 25.1 6.4 43.6 65 0.3 32.6
08:50 1021 30.15 850 25.1 6.6 43.9 64 0.3 32.6
08:55 1021 30.15 850 25.1 6.9 44.4 63 0.3 32.5
09:00 1021 30.15 850 25.1 7.1 44.8 62 0.4 32.8
09:05 1021 30.15 850 25.1 7.1 44.8 63 0.5 32.9
09:10 1021 30.15 850 25.1 7.4 45.4 62 0.5 33
09:15 1021 30.15 850 25.1 7.6 45.7 59 0.2 32.4
09:20 1021 30.15 850 25.1 7.7 45.9 60 0.4 32.8
09:25 1021 30.15 850 25.1 8.1 46.6 58 0.4 32.7
09:30 1021 30.15 850 25.1 8.4 47.1 56 0.2 32.4
09:35 1021 30.15 850 25.1 9.1 48.3 54 0.3 32.5
09:40 1021 30.15 850 25.1 9.6 49.3 54 0.7 33.3
09:45 1021 30.15 850 25.1 9.6 49.3 49 -0.5 31
09:50 1021 30.15 850 25.1 10.2 50.4 47 -0.4 31.2
09:55 1021 30.15 850 25.1 10.5 51 46 -0.5 31
10:00 1021 30.15 850 25.1 10.4 50.7 47 -0.5 31.1
10:05 1021 30.15 850 25.1 10.7 51.3 46 -0.5 31.1
10:10 1021 30.15 850 25.1 10.4 50.8 47 -0.5 31.2
10:15 1021 30.15 850 25.1 10.9 51.6 45 -0.4 31.2
10:20 1021 30.15 850 25.1 10.8 51.5 46 -0.3 31.5
10:25 1021 30.15 850 25.1 10.8 51.4 47 -0.2 31.7
10:30 1021 30.15 850 25.1 10.7 51.2 48 0 32
10:35 1021 30.15 850 25.1 11 51.8 46 -0.2 31.6
10:40 1021 30.15 850 25.1 10.9 51.6 47 -0 32
10:45 1021 30.15 850 25.1 10.7 51.2 47 -0.3 31.5
10:50 1021 30.15 850 25.1 10.9 51.6 46 -0.2 31.6
10:55 1021 30.15 850 25.1 11.1 52 45 -0.2 31.6
11:00 1021 30.15 850 25.1 11 51.8 46 -0.2 31.7
11:05 1021 30.15 850 25.1 11.1 52 45 -0.3 31.5
11:10 1021 30.15 850 25.1 11 51.8 46 -0 31.9
11:15 1021 30.15 850 25.1 10.7 51.2 46 -0.3 31.5
11:20 1021 30.15 850 25.1 11.4 52.5 45 -0 32
11:25 1021 30.15 850 25.1 12.1 53.7 45 0.4 32.7
11:30 1021 30.15 850 25.1 12 53.5 43 -0 31.9
11:35 1021 30.15 850 25.1 12 53.6 45 0.6 33.1
11:40 1021 30.15 850 25.1 11.7 53 45 0.1 32.1
11:45 1021 30.15 850 25.1 11.1 52 45 -0.2 31.6
11:50 1021 30.15 850 25.1 10.9 51.6 45 -0.6 31
11:55 1021 30.15 850 25.1 10.7 51.2 45 -0.7 30.7
12:00 1021 30.15 850 25.1 10.7 51.2 46 -0.3 31.4
12:05 1021 30.15 850 25.1 10.3 50.5 50 0.2 32.4
12:10 1021 30.15 850 25.1 9.7 49.4 52 0.5 32.9
12:15 1021 30.15 850 25.1 10.1 50.3 48 -0.4 31.3
12:20 1021 30.15 850 25.1 10.4 50.7 46 -0.8 30.6
12:25 1021 30.15 850 25.1 10.1 50.2 46 -0.9 30.3
12:30 1021 30.15 850 25.1 10.2 50.3 47 -0.6 31
12:35 1021 30.15 850 25.1 10.4 50.8 45 -1.1 30.1
12:40 1021 30.15 850 25.1 10.6 51 44 -1 30.2
12:45 1021 30.15 850 25.1 10.3 50.6 46 -0.9 30.4
12:50 1021 30.15 850 25.1 10.2 50.4 45 -1.1 30
12:55 1021 30.15 850 25.1 10.3 50.6 45 -1.1 30
13:00 1021 30.15 850 25.1 10.6 51 44 -1.1 30.1
13:05 1021 30.15 850 25.1 10.7 51.2 44 -1.1 29.9
13:10 1021 30.15 850 25.1 10.6 51.2 44 -1.1 30.1
13:15 1021 30.15 850 25.1 10.7 51.2 47 -0.3 31.5
13:20 1021 30.15 850 25.1 10.4 50.6 51 0.8 33.5
13:25 1021 30.15 850 25.1 9.6 49.3 54 0.8 33.4
13:30 1021 30.15 850 25.1 9.5 49.1 52 0 32.1
13:35 1021 30.15 850 25.1 10 50 49 -0.3 31.4
13:40 1021 30.15 850 25.1 10.3 50.6 47 -0.3 31.5
13:45 1021 30.15 850 25.1 10.3 50.6 47 -0.3 31.4
13:50 1021 30.15 850 25.1 10.2 50.4 48 -0.2 31.7
13:55 1021 30.15 850 25.1 9.9 49.9 49 -0.3 31.4
14:00 1021 30.15 850 25.1 9.6 49.4 58 1.8 35.3
14:05 1021 30.15 850 25.1 8.6 47.5 67 2.9 37.3
14:10 1021 30.15 850 25.1 8 46.4 69 2.7 36.8
14:15 1021 30.15 850 25.1 7.9 46.2 69 2.6 36.6
14:20 1021 30.15 850 25.1 8 46.4 67 2.2 35.9
14:25 1021 30.15 851 25.13 7.9 46.1 67 2.2 35.9
14:30 1021 30.15 851 25.13 7.8 46 67 2 35.6
14:35 1021 30.15 851 25.13 7.7 45.8 68 2.1 35.7
14:40 1021 30.15 851 25.13 7.7 45.9 67 1.9 35.5
14:45 1022 30.18 851 25.13 7.6 45.8 69 2.3 36.1
14:50 1021 30.15 851 25.13 7.7 45.8 71 2.7 36.8
14:55 1021 30.15 851 25.13 7.8 46.1 69 2.6 36.7
15:00 1022 30.18 851 25.13 7.7 45.9 69 2.4 36.3
15:05 1022 30.18 851 25.13 7.5 45.5 73 3 37.5
15:10 1021 30.15 851 25.13 7 44.6 76 3.1 37.6
15:15 1021 30.15 851 25.13 6.6 43.8 77 2.8 37
15:20 1021 30.15 850 25.1 6.8 44.2 79 3.4 38.2
15:25 1021 30.15 850 25.1 7.1 44.8 78 3.5 38.4
15:30 1021 30.15 850 25.1 6.9 44.5 77 3.3 37.9
15:35 1021 30.15 850 25.1 7.1 44.8 75 3 37.5
15:40 1021 30.15 850 25.1 7.4 45.4 71 2.5 36.4
15:45 1021 30.15 850 25.1 7.6 45.8 73 3.2 37.7
15:50 1021 30.15 850 25.1 7.7 45.8 73 3.1 37.5
15:55 1021 30.15 850 25.1 7.7 45.9 72 3 37.4
16:00 1021 30.15 850 25.1 7.7 45.9 71 2.8 37
16:05 1021 30.15 850 25.1 7.7 45.9 68 2.3 36.1
16:10 1021 30.15 850 25.1 8 46.4 69 2.6 36.7
16:15 1021 30.15 850 25.1 8.2 46.8 67 2.5 36.6
16:20 1021 30.15 850 25.1 9 48.1 65 2.7 36.9
16:25 1021 30.15 850 25.1 8.7 47.6 65 2.5 36.4
16:30 1021 30.15 850 25.1 8.4 47 68 2.8 37.1
16:35 1021 30.15 850 25.1 8.7 47.7 65 2.6 36.6
16:40 1021 30.15 850 25.1 8.5 47.3 67 2.8 37
16:45 1021 30.15 850 25.1 8.4 47.1 67 2.6 36.7
16:50 1021 30.15 850 25.1 8.5 47.3 66 2.6 36.7
16:55 1021 30.15 850 25.1 8.7 47.6 65 2.5 36.5
17:00 1021 30.15 850 25.1 8.6 47.4 70 3.4 38.1
17:05 1021 30.15 850 25.1 8 46.3 69 2.7 36.8
17:10 1021 30.15 850 25.1 7.7 45.8 67 1.9 35.4
17:15 1021 30.15 850 25.1 7.6 45.6 65 1.4 34.5
17:20 1021 30.15 850 25.1 7.7 45.8 64 1.3 34.3
17:25 1021 30.15 850 25.1 7.7 45.8 65 1.5 34.6
17:30 1021 30.15 850 25.1 7.7 45.9 65 1.6 34.9
17:35 1021 30.15 850 25.1 7.7 45.8 66 1.7 35.1
17:40 1021 30.15 850 25.1 7.7 45.9 67 1.9 35.5
17:45 1021 30.15 850 25.1 7.8 46 67 2.1 35.8
17:50 1021 30.15 850 25.1 7.8 46 66 1.9 35.4
17:55 1021 30.15 850 25.1 7.7 45.8 67 1.9 35.5
18:00 1021 30.15 850 25.1 7.7 45.9 67 2 35.6
18:05 1021 30.15 850 25.1 7.8 46 67 2.1 35.8
18:10 1021 30.15 850 25.1 7.8 46 67 2.1 35.7
18:15 1021 30.15 850 25.1 7.5 45.6 72 2.9 37.2
18:20 1021 30.15 850 25.1 7.2 44.9 75 3 37.4
18:25 1021 30.15 850 25.1 6.8 44.3 79 3.5 38.3
18:30 1021 30.15 850 25.1 6.3 43.4 83 3.6 38.5
18:35 1021 30.15 850 25.1 6 42.9 85 3.7 38.6
18:40 1021 30.15 850 25.1 5.9 42.6 85 3.5 38.3
18:45 1021 30.15 850 25.1 5.9 42.7 84 3.4 38.2
18:50 1021 30.15 850 25.1 6 42.8 84 3.5 38.3
18:55 1021 30.15 850 25.1 6 42.8 83 3.3 38
19:00 1021 30.15 851 25.13 6 42.8 83 3.4 38.1
19:05 1021 30.15 851 25.13 6 42.9 83 3.4 38.1
19:10 1022 30.18 851 25.13 6.1 42.9 83 3.5 38.2
19:15 1022 30.18 851 25.13 6.1 42.9 83 3.5 38.2
19:20 1022 30.18 851 25.13 5.9 42.6 83 3.3 37.9
19:25 1022 30.18 851 25.13 5.8 42.4 82 3 37.4
19:30 1022 30.18 851 25.13 5.8 42.4 80 2.7 36.8
19:35 1021 30.15 851 25.13 5.7 42.3 81 2.7 36.8
19:40 1022 30.18 851 25.13 5.2 41.4 82 2.5 36.4
19:45 1021 30.15 851 25.13 4.9 40.8 82 2.2 35.9
19:50 1022 30.18 851 25.13 4.9 40.9 82 2.1 35.7
19:55 1022 30.18 851 25.13 5.1 41.2 80 1.9 35.3
20:00 1022 30.18 851 25.13 5.1 41.3 81 2.2 36
20:05 1022 30.18 851 25.13 5.2 41.3 79 1.9 35.4
20:10 1022 30.18 851 25.13 5.4 41.7 79 2 35.7
20:15 1022 30.18 851 25.13 5.4 41.6 82 2.5 36.5
20:20 1022 30.18 851 25.13 5.3 41.5 82 2.4 36.4
20:25 1022 30.18 851 25.13 6 42.7 72 1.2 34.2
20:30 1022 30.18 851 25.13 6.3 43.3 70 1.3 34.3
20:35 1022 30.18 851 25.13 6.2 43.2 72 1.6 34.8
20:40 1022 30.18 851 25.13 6.2 43.2 70 1.3 34.3
20:45 1022 30.18 851 25.13 6 42.9 74 1.8 35.2
20:50 1022 30.18 851 25.13 5.8 42.4 76 2 35.5
20:55 1022 30.18 851 25.13 5.5 42 78 1.9 35.5
21:00 1022 30.18 851 25.13 5.3 41.5 78 1.8 35.2
21:05 1022 30.18 851 25.13 5 41 80 1.9 35.4
21:10 1022 30.18 851 25.13 4.8 40.7 79 1.6 34.9
21:15 1022 30.18 851 25.13 4.8 40.7 79 1.5 34.6
21:20 1022 30.18 851 25.13 4.8 40.7 80 1.6 34.9
21:25 1022 30.18 851 25.13 4.7 40.5 79 1.4 34.6
21:30 1022 30.18 851 25.13 4.7 40.5 79 1.4 34.5
21:35 1022 30.18 851 25.13 4.7 40.5 77 1.1 34
21:40 1022 30.18 851 25.13 5 40.9 72 0.4 32.7
21:45 1022 30.18 851 25.13 5.3 41.6 71 0.6 33.1
21:50 1022 30.18 851 25.13 5.3 41.5 71 0.6 33
21:55 1022 30.18 851 25.13 5.2 41.4 72 0.6 33.1
22:00 1022 30.18 851 25.13 5.1 41.2 74 0.9 33.6
22:05 1022 30.18 851 25.13 4.9 40.9 75 0.9 33.6
22:10 1022 30.18 851 25.13 4.7 40.5 76 0.8 33.4
22:15 1022 30.18 851 25.13 4.7 40.5 76 0.9 33.6
22:20 1022 30.18 851 25.13 4.8 40.6 73 0.4 32.8
22:25 1022 30.18 851 25.13 5 41 71 0.3 32.5
22:30 1022 30.18 851 25.13 5.2 41.3 71 0.4 32.7
22:35 1022 30.18 851 25.13 5 41 75 1 33.8
22:40 1022 30.18 851 25.13 4.6 40.3 78 1.1 34.1
22:45 1022 30.18 851 25.13 4.4 40 80 1.2 34.2
22:50 1022 30.18 851 25.13 4.4 39.9 80 1.3 34.3
22:55 1022 30.18 851 25.13 4.3 39.8 80 1.3 34.3
23:00 1022 30.18 851 25.13 4.3 39.8 81 1.3 34.3
23:05 1022 30.18 851 25.13 4.4 39.9 81 1.4 34.6
23:10 1022 30.18 852 25.16 4.4 39.9 81 1.5 34.7
23:15 1022 30.18 852 25.16 4.4 39.9 81 1.5 34.6
23:20 1023 30.21 852 25.16 4.4 39.9 82 1.6 34.9
23:25 1023 30.21 852 25.16 4.6 40.2 80 1.4 34.6
23:30 1023 30.21 852 25.16 4.7 40.4 81 1.7 35
23:35 1023 30.21 852 25.16 4.8 40.6 80 1.6 34.9
23:40 1023 30.21 852 25.16 4.8 40.7 80 1.7 35
23:45 1023 30.21 852 25.16 4.8 40.7 80 1.7 35
23:50 1023 30.21 852 25.16 4.8 40.6 80 1.6 34.9
23:55 1023 30.21 852 25.16 4.8 40.6 80 1.6 34.9
24:00 1023 30.21 852 25.16 4.8 40.6 79 1.5 34.7